sensor_id;sensor_type;location;lat;lon;timestamp;temperature;humidity
9167;DHT22;4618;48.818;9.088;2022-08-19T00:00:21;20.70;14.40
9167;DHT22;4618;48.818;9.088;2022-08-19T00:02:47;20.80;32.90
9167;DHT22;4618;48.818;9.088;2022-08-19T00:05:13;20.80;10.30
9167;DHT22;4618;48.818;9.088;2022-08-19T00:07:41;20.80;30.50
9167;DHT22;4618;48.818;9.088;2022-08-19T00:10:10;20.70;74.70
9167;DHT22;4618;48.818;9.088;2022-08-19T00:12:36;20.70;93.30
9167;DHT22;4618;48.818;9.088;2022-08-19T00:15:08;20.70;60.10
9167;DHT22;4618;48.818;9.088;2022-08-19T00:17:38;20.70;90.00
9167;DHT22;4618;48.818;9.088;2022-08-19T00:20:04;20.70;99.90
9167;DHT22;4618;48.818;9.088;2022-08-19T00:22:29;20.70;62.70
9167;DHT22;4618;48.818;9.088;2022-08-19T00:24:55;20.70;66.20
9167;DHT22;4618;48.818;9.088;2022-08-19T00:27:20;20.70;48.60
9167;DHT22;4618;48.818;9.088;2022-08-19T00:29:46;20.70;93.00
9167;DHT22;4618;48.818;9.088;2022-08-19T00:32:12;20.60;99.90
9167;DHT22;4618;48.818;9.088;2022-08-19T00:34:37;20.60;99.90
9167;DHT22;4618;48.818;9.088;2022-08-19T00:37:03;20.60;99.90
9167;DHT22;4618;48.818;9.088;2022-08-19T00:39:28;20.60;99.90
9167;DHT22;4618;48.818;9.088;2022-08-19T00:41:55;20.60;99.90
9167;DHT22;4618;48.818;9.088;2022-08-19T00:44:26;20.60;99.90
9167;DHT22;4618;48.818;9.088;2022-08-19T00:46:54;20.60;99.90
9167;DHT22;4618;48.818;9.088;2022-08-19T00:49:30;20.50;99.90
9167;DHT22;4618;48.818;9.088;2022-08-19T00:52:06;20.50;99.90
9167;DHT22;4618;48.818;9.088;2022-08-19T00:54:34;20.50;99.90
9167;DHT22;4618;48.818;9.088;2022-08-19T00:57:02;20.40;99.90
9167;DHT22;4618;48.818;9.088;2022-08-19T00:59:29;20.50;99.90
9167;DHT22;4618;48.818;9.088;2022-08-19T01:01:55;20.50;99.90
9167;DHT22;4618;48.818;9.088;2022-08-19T01:04:21;20.50;99.90
9167;DHT22;4618;48.818;9.088;2022-08-19T01:06:47;20.50;99.90
9167;DHT22;4618;48.818;9.088;2022-08-19T01:09:13;20.50;99.90
9167;DHT22;4618;48.818;9.088;2022-08-19T01:11:41;20.40;99.90
9167;DHT22;4618;48.818;9.088;2022-08-19T01:14:09;20.50;99.90
9167;DHT22;4618;48.818;9.088;2022-08-19T01:16:37;20.50;99.90
9167;DHT22;4618;48.818;9.088;2022-08-19T01:19:13;20.50;99.90
9167;DHT22;4618;48.818;9.088;2022-08-19T01:21:46;20.50;99.90
9167;DHT22;4618;48.818;9.088;2022-08-19T01:24:13;20.40;99.90
9167;DHT22;4618;48.818;9.088;2022-08-19T01:26:43;20.40;99.90
9167;DHT22;4618;48.818;9.088;2022-08-19T01:29:09;20.40;99.90
9167;DHT22;4618;48.818;9.088;2022-08-19T01:31:35;20.30;99.90
9167;DHT22;4618;48.818;9.088;2022-08-19T01:34:03;20.40;99.90
9167;DHT22;4618;48.818;9.088;2022-08-19T01:36:38;20.40;99.90
9167;DHT22;4618;48.818;9.088;2022-08-19T01:39:07;20.40;99.90
9167;DHT22;4618;48.818;9.088;2022-08-19T01:41:33;20.40;99.90
9167;DHT22;4618;48.818;9.088;2022-08-19T01:44:00;20.40;99.90
9167;DHT22;4618;48.818;9.088;2022-08-19T01:46:29;20.40;99.90
9167;DHT22;4618;48.818;9.088;2022-08-19T01:48:54;20.30;99.90
9167;DHT22;4618;48.818;9.088;2022-08-19T01:51:20;20.30;99.90
9167;DHT22;4618;48.818;9.088;2022-08-19T01:53:49;20.40;99.90
9167;DHT22;4618;48.818;9.088;2022-08-19T01:56:16;20.40;99.90
9167;DHT22;4618;48.818;9.088;2022-08-19T01:58:48;20.40;99.90
9167;DHT22;4618;48.818;9.088;2022-08-19T02:01:16;20.20;1.00
9167;DHT22;4618;48.818;9.088;2022-08-19T02:03:41;20.30;1.00
9167;DHT22;4618;48.818;9.088;2022-08-19T02:06:07;20.20;1.00
9167;DHT22;4618;48.818;9.088;2022-08-19T02:08:35;20.20;1.00
9167;DHT22;4618;48.818;9.088;2022-08-19T02:11:03;20.10;1.00
9167;DHT22;4618;48.818;9.088;2022-08-19T02:13:30;20.10;1.00
9167;DHT22;4618;48.818;9.088;2022-08-19T02:15:56;20.10;1.00
9167;DHT22;4618;48.818;9.088;2022-08-19T02:18:21;20.10;1.00
9167;DHT22;4618;48.818;9.088;2022-08-19T02:20:47;20.10;1.00
9167;DHT22;4618;48.818;9.088;2022-08-19T02:23:14;20.00;1.00
9167;DHT22;4618;48.818;9.088;2022-08-19T02:25:42;20.00;1.00
9167;DHT22;4618;48.818;9.088;2022-08-19T02:28:08;20.00;1.00
9167;DHT22;4618;48.818;9.088;2022-08-19T02:30:34;20.00;1.00
9167;DHT22;4618;48.818;9.088;2022-08-19T02:32:59;20.10;1.00
9167;DHT22;4618;48.818;9.088;2022-08-19T02:35:25;20.00;1.00
9167;DHT22;4618;48.818;9.088;2022-08-19T02:37:51;20.10;1.00
9167;DHT22;4618;48.818;9.088;2022-08-19T02:40:35;20.00;1.00
9167;DHT22;4618;48.818;9.088;2022-08-19T02:43:04;20.00;1.00
9167;DHT22;4618;48.818;9.088;2022-08-19T02:45:34;19.90;1.00
9167;DHT22;4618;48.818;9.088;2022-08-19T02:47:59;20.00;1.00
9167;DHT22;4618;48.818;9.088;2022-08-19T02:50:25;20.00;1.00
9167;DHT22;4618;48.818;9.088;2022-08-19T02:52:51;19.80;44.60
9167;DHT22;4618;48.818;9.088;2022-08-19T02:55:17;19.90;81.20
9167;DHT22;4618;48.818;9.088;2022-08-19T02:57:42;19.90;1.80
9167;DHT22;4618;48.818;9.088;2022-08-19T03:00:09;19.90;33.10
9167;DHT22;4618;48.818;9.088;2022-08-19T03:02:38;19.90;4.60
9167;DHT22;4618;48.818;9.088;2022-08-19T03:05:04;19.90;34.50
9167;DHT22;4618;48.818;9.088;2022-08-19T03:07:30;19.80;88.80
9167;DHT22;4618;48.818;9.088;2022-08-19T03:09:56;19.80;99.90
9167;DHT22;4618;48.818;9.088;2022-08-19T03:12:21;19.80;99.90
9167;DHT22;4618;48.818;9.088;2022-08-19T03:14:47;19.80;99.90
9167;DHT22;4618;48.818;9.088;2022-08-19T03:17:13;19.70;99.90
9167;DHT22;4618;48.818;9.088;2022-08-19T03:19:38;19.70;99.90
9167;DHT22;4618;48.818;9.088;2022-08-19T03:22:04;19.60;99.90
9167;DHT22;4618;48.818;9.088;2022-08-19T03:24:30;19.70;99.90
9167;DHT22;4618;48.818;9.088;2022-08-19T03:26:56;19.70;99.90
9167;DHT22;4618;48.818;9.088;2022-08-19T03:29:23;19.70;99.90
9167;DHT22;4618;48.818;9.088;2022-08-19T03:31:49;19.70;99.90
9167;DHT22;4618;48.818;9.088;2022-08-19T03:34:27;19.60;99.90
9167;DHT22;4618;48.818;9.088;2022-08-19T03:36:55;19.60;1.00
9167;DHT22;4618;48.818;9.088;2022-08-19T03:39:22;19.60;1.00
9167;DHT22;4618;48.818;9.088;2022-08-19T03:41:49;19.50;1.00
9167;DHT22;4618;48.818;9.088;2022-08-19T03:44:19;19.50;1.00
9167;DHT22;4618;48.818;9.088;2022-08-19T03:46:50;19.60;1.00
9167;DHT22;4618;48.818;9.088;2022-08-19T03:49:18;19.50;1.00
9167;DHT22;4618;48.818;9.088;2022-08-19T03:51:45;19.50;1.00
9167;DHT22;4618;48.818;9.088;2022-08-19T03:54:13;19.40;1.00
9167;DHT22;4618;48.818;9.088;2022-08-19T03:56:41;19.40;1.00
9167;DHT22;4618;48.818;9.088;2022-08-19T03:59:11;19.40;1.00
9167;DHT22;4618;48.818;9.088;2022-08-19T04:01:38;19.40;1.00
9167;DHT22;4618;48.818;9.088;2022-08-19T04:04:04;19.40;1.00
9167;DHT22;4618;48.818;9.088;2022-08-19T04:06:33;19.30;1.00
9167;DHT22;4618;48.818;9.088;2022-08-19T04:09:01;19.40;1.00
9167;DHT22;4618;48.818;9.088;2022-08-19T04:11:38;19.40;1.00
9167;DHT22;4618;48.818;9.088;2022-08-19T04:14:08;19.30;1.00
9167;DHT22;4618;48.818;9.088;2022-08-19T04:16:34;19.40;1.00
9167;DHT22;4618;48.818;9.088;2022-08-19T04:19:01;19.40;1.00
9167;DHT22;4618;48.818;9.088;2022-08-19T04:21:28;19.40;1.00
9167;DHT22;4618;48.818;9.088;2022-08-19T04:23:55;19.40;1.00
9167;DHT22;4618;48.818;9.088;2022-08-19T04:26:23;19.40;1.00
9167;DHT22;4618;48.818;9.088;2022-08-19T04:28:50;19.50;1.00
9167;DHT22;4618;48.818;9.088;2022-08-19T04:31:22;19.50;1.00
9167;DHT22;4618;48.818;9.088;2022-08-19T04:33:52;19.50;1.00
9167;DHT22;4618;48.818;9.088;2022-08-19T04:36:24;19.50;1.00
9167;DHT22;4618;48.818;9.088;2022-08-19T04:38:53;19.50;1.00
9167;DHT22;4618;48.818;9.088;2022-08-19T04:41:19;19.50;99.90
9167;DHT22;4618;48.818;9.088;2022-08-19T04:44:04;19.50;1.00
9167;DHT22;4618;48.818;9.088;2022-08-19T04:46:30;19.50;1.00
9167;DHT22;4618;48.818;9.088;2022-08-19T04:48:57;19.50;1.00
9167;DHT22;4618;48.818;9.088;2022-08-19T04:51:23;19.50;1.00
9167;DHT22;4618;48.818;9.088;2022-08-19T04:53:49;19.50;1.00
9167;DHT22;4618;48.818;9.088;2022-08-19T04:56:16;19.70;99.90
9167;DHT22;4618;48.818;9.088;2022-08-19T04:58:43;19.70;99.90
9167;DHT22;4618;48.818;9.088;2022-08-19T05:01:12;19.80;99.90
9167;DHT22;4618;48.818;9.088;2022-08-19T05:03:38;19.90;99.90
9167;DHT22;4618;48.818;9.088;2022-08-19T05:06:09;19.90;99.90
9167;DHT22;4618;48.818;9.088;2022-08-19T05:08:37;19.90;99.90
9167;DHT22;4618;48.818;9.088;2022-08-19T05:11:12;19.80;99.90
9167;DHT22;4618;48.818;9.088;2022-08-19T05:13:38;19.90;99.90
9167;DHT22;4618;48.818;9.088;2022-08-19T05:16:04;20.00;99.90
9167;DHT22;4618;48.818;9.088;2022-08-19T05:18:30;20.00;99.90
9167;DHT22;4618;48.818;9.088;2022-08-19T05:21:16;20.00;99.90
9167;DHT22;4618;48.818;9.088;2022-08-19T05:24:01;20.10;1.00
9167;DHT22;4618;48.818;9.088;2022-08-19T05:26:27;20.20;1.00
9167;DHT22;4618;48.818;9.088;2022-08-19T05:28:53;20.20;1.00
9167;DHT22;4618;48.818;9.088;2022-08-19T05:31:20;20.20;1.00
9167;DHT22;4618;48.818;9.088;2022-08-19T05:33:45;20.20;1.00
9167;DHT22;4618;48.818;9.088;2022-08-19T05:36:11;20.20;1.00
9167;DHT22;4618;48.818;9.088;2022-08-19T05:38:38;20.20;1.00
9167;DHT22;4618;48.818;9.088;2022-08-19T05:41:11;20.20;1.00
9167;DHT22;4618;48.818;9.088;2022-08-19T05:43:37;20.30;1.00
9167;DHT22;4618;48.818;9.088;2022-08-19T05:46:04;20.20;1.00
9167;DHT22;4618;48.818;9.088;2022-08-19T05:48:32;20.20;1.00
9167;DHT22;4618;48.818;9.088;2022-08-19T05:50:57;20.20;1.00
9167;DHT22;4618;48.818;9.088;2022-08-19T05:53:25;20.20;1.00
9167;DHT22;4618;48.818;9.088;2022-08-19T05:55:50;20.10;1.00
9167;DHT22;4618;48.818;9.088;2022-08-19T05:58:16;20.10;1.00
9167;DHT22;4618;48.818;9.088;2022-08-19T06:00:43;20.10;1.00
9167;DHT22;4618;48.818;9.088;2022-08-19T06:03:10;20.00;1.00
9167;DHT22;4618;48.818;9.088;2022-08-19T06:05:35;20.00;1.00
9167;DHT22;4618;48.818;9.088;2022-08-19T06:08:01;20.00;1.00
9167;DHT22;4618;48.818;9.088;2022-08-19T06:10:27;20.00;35.70
9167;DHT22;4618;48.818;9.088;2022-08-19T06:12:53;20.00;1.00
9167;DHT22;4618;48.818;9.088;2022-08-19T06:15:19;20.10;1.00
9167;DHT22;4618;48.818;9.088;2022-08-19T06:17:45;20.10;1.00
9167;DHT22;4618;48.818;9.088;2022-08-19T06:20:13;20.00;36.50
9167;DHT22;4618;48.818;9.088;2022-08-19T06:22:45;20.00;82.70
9167;DHT22;4618;48.818;9.088;2022-08-19T06:25:13;20.00;25.00
9167;DHT22;4618;48.818;9.088;2022-08-19T06:27:39;20.00;48.30
9167;DHT22;4618;48.818;9.088;2022-08-19T06:30:06;20.00;84.30
9167;DHT22;4618;48.818;9.088;2022-08-19T06:32:31;20.00;99.90
9167;DHT22;4618;48.818;9.088;2022-08-19T06:34:57;20.00;68.10
9167;DHT22;4618;48.818;9.088;2022-08-19T06:37:23;20.10;45.50
9167;DHT22;4618;48.818;9.088;2022-08-19T06:39:49;20.10;1.00
9167;DHT22;4618;48.818;9.088;2022-08-19T06:42:15;20.20;1.00
9167;DHT22;4618;48.818;9.088;2022-08-19T06:44:46;20.20;1.00
9167;DHT22;4618;48.818;9.088;2022-08-19T06:47:14;20.20;1.00
9167;DHT22;4618;48.818;9.088;2022-08-19T06:49:41;20.20;1.00
9167;DHT22;4618;48.818;9.088;2022-08-19T06:52:08;20.20;1.00
9167;DHT22;4618;48.818;9.088;2022-08-19T06:54:33;20.30;1.00
9167;DHT22;4618;48.818;9.088;2022-08-19T06:57:00;20.30;1.00
9167;DHT22;4618;48.818;9.088;2022-08-19T06:59:30;20.30;1.00
9167;DHT22;4618;48.818;9.088;2022-08-19T07:01:59;20.40;1.00
9167;DHT22;4618;48.818;9.088;2022-08-19T07:04:29;20.40;1.00
9167;DHT22;4618;48.818;9.088;2022-08-19T07:07:03;20.50;1.00
9167;DHT22;4618;48.818;9.088;2022-08-19T07:09:31;20.50;1.00
9167;DHT22;4618;48.818;9.088;2022-08-19T07:11:57;20.50;1.00
9167;DHT22;4618;48.818;9.088;2022-08-19T07:14:25;20.50;1.00
9167;DHT22;4618;48.818;9.088;2022-08-19T07:16:53;20.40;1.00
9167;DHT22;4618;48.818;9.088;2022-08-19T07:19:21;20.40;1.00
9167;DHT22;4618;48.818;9.088;2022-08-19T07:21:48;20.40;1.00
9167;DHT22;4618;48.818;9.088;2022-08-19T07:24:15;20.40;1.00
9167;DHT22;4618;48.818;9.088;2022-08-19T07:26:42;20.50;1.00
9167;DHT22;4618;48.818;9.088;2022-08-19T07:29:09;20.60;1.00
9167;DHT22;4618;48.818;9.088;2022-08-19T07:31:35;20.50;1.00
9167;DHT22;4618;48.818;9.088;2022-08-19T07:34:03;20.60;1.00
9167;DHT22;4618;48.818;9.088;2022-08-19T07:36:32;20.80;99.90
9167;DHT22;4618;48.818;9.088;2022-08-19T07:38:59;20.80;99.90
9167;DHT22;4618;48.818;9.088;2022-08-19T07:41:27;20.90;99.90
9167;DHT22;4618;48.818;9.088;2022-08-19T07:43:57;21.00;99.90
9167;DHT22;4618;48.818;9.088;2022-08-19T07:46:23;21.00;99.90
9167;DHT22;4618;48.818;9.088;2022-08-19T07:48:49;21.00;99.90
9167;DHT22;4618;48.818;9.088;2022-08-19T07:51:18;21.00;99.90
9167;DHT22;4618;48.818;9.088;2022-08-19T07:53:44;21.10;99.90
9167;DHT22;4618;48.818;9.088;2022-08-19T07:56:12;21.00;99.90
9167;DHT22;4618;48.818;9.088;2022-08-19T07:58:40;21.00;99.90
9167;DHT22;4618;48.818;9.088;2022-08-19T08:01:09;21.00;99.90
9167;DHT22;4618;48.818;9.088;2022-08-19T08:03:37;20.90;99.90
9167;DHT22;4618;48.818;9.088;2022-08-19T08:06:21;20.90;99.90
9167;DHT22;4618;48.818;9.088;2022-08-19T08:09:07;20.80;99.90
9167;DHT22;4618;48.818;9.088;2022-08-19T08:11:49;20.90;99.90
9167;DHT22;4618;48.818;9.088;2022-08-19T08:14:24;20.90;99.90
9167;DHT22;4618;48.818;9.088;2022-08-19T08:16:50;20.90;99.90
9167;DHT22;4618;48.818;9.088;2022-08-19T08:19:18;20.90;99.90
9167;DHT22;4618;48.818;9.088;2022-08-19T08:21:44;20.80;99.90
9167;DHT22;4618;48.818;9.088;2022-08-19T08:24:10;20.70;99.90
9167;DHT22;4618;48.818;9.088;2022-08-19T08:26:36;20.70;99.90
9167;DHT22;4618;48.818;9.088;2022-08-19T08:29:02;20.70;99.90
9167;DHT22;4618;48.818;9.088;2022-08-19T08:31:28;20.60;99.90
9167;DHT22;4618;48.818;9.088;2022-08-19T08:33:54;20.60;99.90
9167;DHT22;4618;48.818;9.088;2022-08-19T08:36:20;20.70;99.90
9167;DHT22;4618;48.818;9.088;2022-08-19T08:38:46;20.90;99.90
9167;DHT22;4618;48.818;9.088;2022-08-19T08:43:46;21.00;99.90
9167;DHT22;4618;48.818;9.088;2022-08-19T08:46:15;21.10;99.90
9167;DHT22;4618;48.818;9.088;2022-08-19T08:48:54;21.10;99.90
9167;DHT22;4618;48.818;9.088;2022-08-19T08:51:28;21.20;99.90
9167;DHT22;4618;48.818;9.088;2022-08-19T08:53:54;21.20;99.90
9167;DHT22;4618;48.818;9.088;2022-08-19T08:56:20;21.20;99.90
9167;DHT22;4618;48.818;9.088;2022-08-19T08:58:56;21.20;99.90
9167;DHT22;4618;48.818;9.088;2022-08-19T09:01:23;21.10;99.90
9167;DHT22;4618;48.818;9.088;2022-08-19T09:03:49;21.10;99.90
9167;DHT22;4618;48.818;9.088;2022-08-19T09:16:41;21.40;99.90
9167;DHT22;4618;48.818;9.088;2022-08-19T09:19:08;21.50;96.40
9167;DHT22;4618;48.818;9.088;2022-08-19T09:21:34;21.50;44.80
9167;DHT22;4618;48.818;9.088;2022-08-19T09:24:01;21.70;1.00
9167;DHT22;4618;48.818;9.088;2022-08-19T09:26:27;21.80;1.00
9167;DHT22;4618;48.818;9.088;2022-08-19T09:28:53;21.90;1.00
9167;DHT22;4618;48.818;9.088;2022-08-19T09:31:24;22.00;1.00
9167;DHT22;4618;48.818;9.088;2022-08-19T09:33:51;22.10;1.00
9167;DHT22;4618;48.818;9.088;2022-08-19T09:36:19;22.10;1.00
9167;DHT22;4618;48.818;9.088;2022-08-19T09:38:45;22.20;1.00
9167;DHT22;4618;48.818;9.088;2022-08-19T09:41:20;22.30;1.00
9167;DHT22;4618;48.818;9.088;2022-08-19T09:43:48;22.40;1.00
9167;DHT22;4618;48.818;9.088;2022-08-19T09:46:17;22.30;1.00
9167;DHT22;4618;48.818;9.088;2022-08-19T09:48:44;22.30;1.00
9167;DHT22;4618;48.818;9.088;2022-08-19T09:51:15;22.30;1.00
9167;DHT22;4618;48.818;9.088;2022-08-19T09:53:43;22.30;1.00
9167;DHT22;4618;48.818;9.088;2022-08-19T09:56:10;22.30;1.00
9167;DHT22;4618;48.818;9.088;2022-08-19T09:58:37;22.30;1.00
9167;DHT22;4618;48.818;9.088;2022-08-19T10:01:03;22.20;1.00
9167;DHT22;4618;48.818;9.088;2022-08-19T10:03:31;22.20;1.00
9167;DHT22;4618;48.818;9.088;2022-08-19T10:05:59;22.20;1.00
9167;DHT22;4618;48.818;9.088;2022-08-19T10:08:28;22.20;1.00
9167;DHT22;4618;48.818;9.088;2022-08-19T10:10:54;22.10;1.00
9167;DHT22;4618;48.818;9.088;2022-08-19T10:13:22;22.10;1.00
9167;DHT22;4618;48.818;9.088;2022-08-19T10:15:49;22.10;1.00
9167;DHT22;4618;48.818;9.088;2022-08-19T10:18:19;22.20;1.00
9167;DHT22;4618;48.818;9.088;2022-08-19T10:20:46;22.20;1.00
9167;DHT22;4618;48.818;9.088;2022-08-19T10:23:13;22.30;1.00
9167;DHT22;4618;48.818;9.088;2022-08-19T10:25:39;22.30;1.00
9167;DHT22;4618;48.818;9.088;2022-08-19T10:28:04;22.20;1.00
9167;DHT22;4618;48.818;9.088;2022-08-19T10:30:31;22.30;1.00
9167;DHT22;4618;48.818;9.088;2022-08-19T10:32:57;22.20;1.00
9167;DHT22;4618;48.818;9.088;2022-08-19T10:35:22;22.20;1.00
9167;DHT22;4618;48.818;9.088;2022-08-19T10:37:49;22.20;1.00
9167;DHT22;4618;48.818;9.088;2022-08-19T10:40:14;22.30;1.00
9167;DHT22;4618;48.818;9.088;2022-08-19T10:42:40;22.30;1.00
9167;DHT22;4618;48.818;9.088;2022-08-19T10:45:06;22.50;1.00
9167;DHT22;4618;48.818;9.088;2022-08-19T10:47:32;22.70;99.90
9167;DHT22;4618;48.818;9.088;2022-08-19T10:49:58;22.80;99.90
9167;DHT22;4618;48.818;9.088;2022-08-19T10:52:45;23.00;99.90
9167;DHT22;4618;48.818;9.088;2022-08-19T10:55:11;23.30;99.90
9167;DHT22;4618;48.818;9.088;2022-08-19T10:57:56;23.60;99.90
9167;DHT22;4618;48.818;9.088;2022-08-19T11:00:23;23.70;99.90
9167;DHT22;4618;48.818;9.088;2022-08-19T11:02:49;23.70;99.90
9167;DHT22;4618;48.818;9.088;2022-08-19T11:05:15;23.80;99.90
9167;DHT22;4618;48.818;9.088;2022-08-19T11:07:42;23.80;99.90
9167;DHT22;4618;48.818;9.088;2022-08-19T11:10:10;23.80;99.90
9167;DHT22;4618;48.818;9.088;2022-08-19T11:12:39;23.90;99.90
9167;DHT22;4618;48.818;9.088;2022-08-19T11:15:09;24.00;99.90
9167;DHT22;4618;48.818;9.088;2022-08-19T11:17:39;23.90;99.90
9167;DHT22;4618;48.818;9.088;2022-08-19T11:20:13;24.00;99.90
9167;DHT22;4618;48.818;9.088;2022-08-19T11:22:40;24.10;99.90
9167;DHT22;4618;48.818;9.088;2022-08-19T11:25:06;24.10;99.90
9167;DHT22;4618;48.818;9.088;2022-08-19T11:27:32;24.20;95.20
9167;DHT22;4618;48.818;9.088;2022-08-19T11:29:59;24.20;81.20
9167;DHT22;4618;48.818;9.088;2022-08-19T11:32:24;24.10;82.10
9167;DHT22;4618;48.818;9.088;2022-08-19T11:34:50;24.30;73.40
9167;DHT22;4618;48.818;9.088;2022-08-19T11:37:15;24.20;71.30
9167;DHT22;4618;48.818;9.088;2022-08-19T11:39:41;24.40;43.80
9167;DHT22;4618;48.818;9.088;2022-08-19T11:42:07;24.60;24.90
9167;DHT22;4618;48.818;9.088;2022-08-19T11:44:53;24.70;13.70
9167;DHT22;4618;48.818;9.088;2022-08-19T11:47:19;24.80;4.20
9167;DHT22;4618;48.818;9.088;2022-08-19T11:49:46;25.10;1.00
9167;DHT22;4618;48.818;9.088;2022-08-19T11:52:11;25.10;1.00
9167;DHT22;4618;48.818;9.088;2022-08-19T11:54:37;24.90;1.00
9167;DHT22;4618;48.818;9.088;2022-08-19T11:57:03;24.90;1.00
9167;DHT22;4618;48.818;9.088;2022-08-19T11:59:29;24.70;1.00
9167;DHT22;4618;48.818;9.088;2022-08-19T12:01:55;24.60;1.00
9167;DHT22;4618;48.818;9.088;2022-08-19T12:04:21;24.60;1.00
9167;DHT22;4618;48.818;9.088;2022-08-19T12:06:47;24.70;1.00
9167;DHT22;4618;48.818;9.088;2022-08-19T12:09:13;24.80;1.00
9167;DHT22;4618;48.818;9.088;2022-08-19T12:11:40;25.00;1.00
9167;DHT22;4618;48.818;9.088;2022-08-19T12:14:08;25.30;1.00
9167;DHT22;4618;48.818;9.088;2022-08-19T12:16:34;25.50;1.00
9167;DHT22;4618;48.818;9.088;2022-08-19T12:19:02;25.80;1.00
9167;DHT22;4618;48.818;9.088;2022-08-19T12:21:30;26.10;1.00
9167;DHT22;4618;48.818;9.088;2022-08-19T12:23:57;26.20;1.00
9167;DHT22;4618;48.818;9.088;2022-08-19T12:26:25;25.90;1.00
9167;DHT22;4618;48.818;9.088;2022-08-19T12:28:51;25.80;1.00
9167;DHT22;4618;48.818;9.088;2022-08-19T12:31:17;25.50;1.00
9167;DHT22;4618;48.818;9.088;2022-08-19T12:33:45;25.30;1.00
9167;DHT22;4618;48.818;9.088;2022-08-19T12:36:13;24.60;1.00
9167;DHT22;4618;48.818;9.088;2022-08-19T12:38:40;24.30;1.00
9167;DHT22;4618;48.818;9.088;2022-08-19T12:41:06;24.40;1.00
9167;DHT22;4618;48.818;9.088;2022-08-19T12:43:34;24.50;1.00
9167;DHT22;4618;48.818;9.088;2022-08-19T12:46:00;24.60;1.00
9167;DHT22;4618;48.818;9.088;2022-08-19T12:48:26;24.80;1.00
9167;DHT22;4618;48.818;9.088;2022-08-19T12:50:51;24.80;1.00
9167;DHT22;4618;48.818;9.088;2022-08-19T12:53:17;24.90;1.00
9167;DHT22;4618;48.818;9.088;2022-08-19T12:55:43;24.90;1.00
9167;DHT22;4618;48.818;9.088;2022-08-19T12:58:09;25.00;1.00
9167;DHT22;4618;48.818;9.088;2022-08-19T13:00:35;25.40;1.00
9167;DHT22;4618;48.818;9.088;2022-08-19T13:03:01;25.80;1.00
9167;DHT22;4618;48.818;9.088;2022-08-19T13:05:30;26.40;1.00
9167;DHT22;4618;48.818;9.088;2022-08-19T13:07:58;26.10;1.00
9167;DHT22;4618;48.818;9.088;2022-08-19T13:10:32;26.10;1.00
9167;DHT22;4618;48.818;9.088;2022-08-19T13:13:02;25.90;1.00
9167;DHT22;4618;48.818;9.088;2022-08-19T13:15:28;25.80;1.00
9167;DHT22;4618;48.818;9.088;2022-08-19T13:17:57;25.60;1.00
9167;DHT22;4618;48.818;9.088;2022-08-19T13:20:24;25.40;1.00
9167;DHT22;4618;48.818;9.088;2022-08-19T13:22:50;25.50;1.00
9167;DHT22;4618;48.818;9.088;2022-08-19T13:25:17;25.60;1.00
9167;DHT22;4618;48.818;9.088;2022-08-19T13:27:44;25.30;1.00
9167;DHT22;4618;48.818;9.088;2022-08-19T13:30:12;25.20;1.00
9167;DHT22;4618;48.818;9.088;2022-08-19T13:32:58;25.20;1.00
9167;DHT22;4618;48.818;9.088;2022-08-19T13:35:53;25.50;1.00
9167;DHT22;4618;48.818;9.088;2022-08-19T13:38:23;25.50;1.00
9167;DHT22;4618;48.818;9.088;2022-08-19T13:40:50;25.70;1.00
9167;DHT22;4618;48.818;9.088;2022-08-19T13:43:17;25.60;1.00
9167;DHT22;4618;48.818;9.088;2022-08-19T13:45:46;25.70;1.00
9167;DHT22;4618;48.818;9.088;2022-08-19T13:48:11;25.70;1.00
9167;DHT22;4618;48.818;9.088;2022-08-19T13:50:42;25.90;1.00
9167;DHT22;4618;48.818;9.088;2022-08-19T13:53:10;25.90;1.00
9167;DHT22;4618;48.818;9.088;2022-08-19T13:55:40;26.00;1.00
9167;DHT22;4618;48.818;9.088;2022-08-19T13:58:07;26.20;1.00
9167;DHT22;4618;48.818;9.088;2022-08-19T14:00:36;26.20;1.00
9167;DHT22;4618;48.818;9.088;2022-08-19T14:03:03;26.10;1.00
9167;DHT22;4618;48.818;9.088;2022-08-19T14:05:29;25.90;1.00
9167;DHT22;4618;48.818;9.088;2022-08-19T14:07:56;25.50;1.00
9167;DHT22;4618;48.818;9.088;2022-08-19T14:10:22;25.40;1.00
9167;DHT22;4618;48.818;9.088;2022-08-19T14:12:49;25.40;1.00
9167;DHT22;4618;48.818;9.088;2022-08-19T14:15:17;25.70;1.00
9167;DHT22;4618;48.818;9.088;2022-08-19T14:17:44;26.10;1.00
9167;DHT22;4618;48.818;9.088;2022-08-19T14:20:12;26.80;1.00
9167;DHT22;4618;48.818;9.088;2022-08-19T14:22:39;26.70;1.00
9167;DHT22;4618;48.818;9.088;2022-08-19T14:25:07;27.30;1.00
9167;DHT22;4618;48.818;9.088;2022-08-19T14:27:35;28.00;1.00
9167;DHT22;4618;48.818;9.088;2022-08-19T14:30:02;28.30;1.00
9167;DHT22;4618;48.818;9.088;2022-08-19T14:32:28;28.40;1.00
9167;DHT22;4618;48.818;9.088;2022-08-19T14:34:54;28.40;1.00
9167;DHT22;4618;48.818;9.088;2022-08-19T14:37:20;28.30;1.00
9167;DHT22;4618;48.818;9.088;2022-08-19T14:39:46;28.30;1.00
9167;DHT22;4618;48.818;9.088;2022-08-19T14:42:12;28.60;1.00
9167;DHT22;4618;48.818;9.088;2022-08-19T14:44:39;28.30;1.00
9167;DHT22;4618;48.818;9.088;2022-08-19T14:47:05;28.00;1.00
9167;DHT22;4618;48.818;9.088;2022-08-19T14:49:33;28.00;1.00
9167;DHT22;4618;48.818;9.088;2022-08-19T14:51:59;27.70;1.00
9167;DHT22;4618;48.818;9.088;2022-08-19T14:54:24;26.60;1.00
9167;DHT22;4618;48.818;9.088;2022-08-19T14:56:50;26.90;1.00
9167;DHT22;4618;48.818;9.088;2022-08-19T14:59:16;26.80;1.00
9167;DHT22;4618;48.818;9.088;2022-08-19T15:01:41;26.90;1.00
9167;DHT22;4618;48.818;9.088;2022-08-19T15:04:07;27.20;1.00
9167;DHT22;4618;48.818;9.088;2022-08-19T15:06:33;27.80;1.00
9167;DHT22;4618;48.818;9.088;2022-08-19T15:08:59;28.20;1.00
9167;DHT22;4618;48.818;9.088;2022-08-19T15:11:27;28.40;1.00
9167;DHT22;4618;48.818;9.088;2022-08-19T15:13:56;28.90;1.00
9167;DHT22;4618;48.818;9.088;2022-08-19T15:16:23;28.90;1.00
9167;DHT22;4618;48.818;9.088;2022-08-19T15:18:53;29.00;1.00
9167;DHT22;4618;48.818;9.088;2022-08-19T15:21:19;28.90;1.00
9167;DHT22;4618;48.818;9.088;2022-08-19T15:23:46;28.80;1.00
9167;DHT22;4618;48.818;9.088;2022-08-19T15:26:13;28.50;1.00
9167;DHT22;4618;48.818;9.088;2022-08-19T15:28:40;28.30;1.00
9167;DHT22;4618;48.818;9.088;2022-08-19T15:31:05;28.30;1.00
9167;DHT22;4618;48.818;9.088;2022-08-19T15:33:36;28.60;1.00
9167;DHT22;4618;48.818;9.088;2022-08-19T15:36:06;29.00;1.00
9167;DHT22;4618;48.818;9.088;2022-08-19T15:38:33;29.00;1.00
9167;DHT22;4618;48.818;9.088;2022-08-19T15:41:00;29.30;1.00
9167;DHT22;4618;48.818;9.088;2022-08-19T15:43:47;28.90;1.00
9167;DHT22;4618;48.818;9.088;2022-08-19T15:46:18;29.00;1.00
9167;DHT22;4618;48.818;9.088;2022-08-19T15:48:44;28.80;1.00
9167;DHT22;4618;48.818;9.088;2022-08-19T15:51:10;28.80;1.00
9167;DHT22;4618;48.818;9.088;2022-08-19T15:53:36;28.70;1.00
9167;DHT22;4618;48.818;9.088;2022-08-19T15:56:01;28.50;1.00
9167;DHT22;4618;48.818;9.088;2022-08-19T15:58:27;28.30;1.00
9167;DHT22;4618;48.818;9.088;2022-08-19T16:01:11;27.90;1.00
9167;DHT22;4618;48.818;9.088;2022-08-19T16:03:57;28.20;1.00
9167;DHT22;4618;48.818;9.088;2022-08-19T16:06:50;28.10;1.00
9167;DHT22;4618;48.818;9.088;2022-08-19T16:09:18;27.90;1.00
9167;DHT22;4618;48.818;9.088;2022-08-19T16:11:45;27.60;1.00
9167;DHT22;4618;48.818;9.088;2022-08-19T16:14:13;27.60;1.00
9167;DHT22;4618;48.818;9.088;2022-08-19T16:16:39;27.60;1.00
9167;DHT22;4618;48.818;9.088;2022-08-19T16:19:07;27.60;1.00
9167;DHT22;4618;48.818;9.088;2022-08-19T16:21:34;27.60;1.00
9167;DHT22;4618;48.818;9.088;2022-08-19T16:24:04;27.50;1.00
9167;DHT22;4618;48.818;9.088;2022-08-19T16:26:31;27.10;1.00
9167;DHT22;4618;48.818;9.088;2022-08-19T16:28:59;26.70;1.00